METAR Data
IDs: Format: Raw Decoded Include TAF

Data at: 1642 UTC 04 Aug 2021

METAR for:EDVE (Braunschweig Arpt, NI, DL)
Text:EDVE 041620Z 10009KT 070V130 9999 SCT043 SCT049 22/12 Q1012
Temperature: 22.0°C ( 72°F)
Dewpoint: 12.0°C ( 54°F) [RH = 53%]
Pressure (altimeter):29.88 inches Hg (1012.0 mb)
Winds:from the E (100 degrees) at 10 MPH (9 knots; 4.6 m/s)
Visibility:6 or more sm (10+ km)
Ceiling:at least 12,000 feet AGL
Clouds: scattered clouds at 4300 feet AGL, scattered clouds at 4900 feet AGL